This is the latest recevied weather packets stored in our database for station/object SP8NFH-13. If no packets are shown the sender has not sent any weather packets the latest 1 day(s).
| Time | Temp. | Humidity | Pressure | Rain* | Wind** | Luminosity | Snow |
|---|---|---|---|---|---|---|---|
| 1778088853 | 22.22° C | 34% | 1009.6 hPa | - | - | - | - |
| 1778088373 | 22.78° C | 32% | 1010.4 hPa | - | - | - | - |
| 1778088013 | 23.89° C | 30% | 1009.1 hPa | - | - | - | - |
| 1778087413 | 23.89° C | 29% | 1011 hPa | - | - | - | - |
| 1778087173 | 24.44° C | 29% | 1009.5 hPa | - | - | - | - |
| 1778086933 | 24.44° C | 28% | 1010.1 hPa | - | - | - | - |
| 1778086573 | 27.22° C | 25% | 1011.7 hPa | - | - | - | - |
| 1778086453 | 28.89° C | 23% | 1008.9 hPa | - | - | - | - |
| 1778086333 | 28.89° C | 23% | 1008.2 hPa | - | - | - | - |
| 1778086213 | 28.89° C | 23% | 1010.7 hPa | - | - | - | - |
| 1778085853 | 28.33° C | 24% | 1009.3 hPa | - | - | - | - |
| 1778085493 | 30.56° C | 21% | 1004.7 hPa | - | - | - | - |
| 1778085013 | 32.22° C | 19% | 1011.6 hPa | - | - | - | - |
| 1778084413 | 34.44° C | 17% | 1007.9 hPa | - | - | - | - |
| 1778084173 | 34.44° C | 18% | 1007.9 hPa | - | - | - | - |
| 1778083933 | 33.89° C | 18% | 1005.6 hPa | - | - | - | - |
| 1778083813 | 32.22° C | 20% | 1011.1 hPa | - | - | - | - |
| 1778082853 | 32.22° C | 20% | 1007.9 hPa | - | - | - | - |
| 1778082373 | 33.89° C | 19% | 1006.5 hPa | - | - | - | - |
| 1778082133 | 31.67° C | 21% | 1006 hPa | - | - | - | - |
| 1778081893 | 27.22° C | 25% | 1009.5 hPa | - | - | - | - |
| 1778081653 | 28.33° C | 24% | 1007 hPa | - | - | - | - |
| 1778081293 | 26.67° C | 26% | 1009.8 hPa | - | - | - | - |
| 1778081173 | 27.22° C | 26% | 1009.8 hPa | - | - | - | - |
| 1778080213 | 27.22° C | 25% | 1008.9 hPa | - | - | - | - |
* Rain since midnight (hover to see other rain measurements)
** Current wind speed in m/s (hover to see current wind gust speed)